createdAt,value
2018-05-21T00:00:34.332Z,60.73
2018-05-21T00:01:34.334Z,60.83
2018-05-21T00:02:34.337Z,61.02
2018-05-21T00:03:34.339Z,60.93
2018-05-21T00:04:34.341Z,60.64
2018-05-21T00:05:34.346Z,60.83
2018-05-21T00:06:34.346Z,61.11
2018-05-21T00:07:34.349Z,60.83
2018-05-21T00:08:34.352Z,60.93
2018-05-21T00:09:34.353Z,61.11
2018-05-21T00:10:34.355Z,60.83
2018-05-21T00:11:34.359Z,60.64
2018-05-21T00:12:34.361Z,60.44
2018-05-21T00:13:34.362Z,60.54
2018-05-21T00:14:34.366Z,60.16
2018-05-21T00:15:34.410Z,60.35
2018-05-21T00:16:34.371Z,60.44
2018-05-21T00:17:34.374Z,60.25
2018-05-21T00:18:34.373Z,60.54
2018-05-21T00:19:34.375Z,60.35
2018-05-21T00:20:34.381Z,60.06
2018-05-21T00:21:34.379Z,60.44
2018-05-21T00:22:34.382Z,60.54
2018-05-21T00:23:34.384Z,59.68
2018-05-21T00:24:34.387Z,59.77
2018-05-21T00:25:34.392Z,59.77
2018-05-21T00:26:34.391Z,60.44
2018-05-21T00:27:34.392Z,60.25
2018-05-21T00:28:34.395Z,60.06
2018-05-21T00:29:34.397Z,59.11
2018-05-21T00:30:34.399Z,58.91
2018-05-21T00:31:34.401Z,58.91
2018-05-21T00:32:34.404Z,58.62
2018-05-21T00:33:34.405Z,58.53
2018-05-21T00:34:34.408Z,58.53
2018-05-21T00:35:34.410Z,58.62
2018-05-21T00:36:34.412Z,57.28
2018-05-21T00:37:34.419Z,57.38
2018-05-21T00:38:34.417Z,57.67
2018-05-21T00:39:34.423Z,57.12
2018-05-21T00:40:34.420Z,56.35
2018-05-21T00:41:34.422Z,56.64
2018-05-21T00:42:34.427Z,56.26
2018-05-21T00:43:34.427Z,56.64
2018-05-21T00:44:34.430Z,56.54
2018-05-21T00:45:34.431Z,55.68
2018-05-21T00:46:34.433Z,55.68
2018-05-21T00:47:34.436Z,55.97
2018-05-21T00:48:34.442Z,56.54
2018-05-21T00:49:34.439Z,56.07
2018-05-21T00:50:34.441Z,56.64
2018-05-21T00:51:34.444Z,55.68
2018-05-21T00:52:34.446Z,56.16
2018-05-21T00:53:34.447Z,56.74
2018-05-21T00:54:34.449Z,56.35
2018-05-21T00:55:34.452Z,56.64
2018-05-21T00:56:34.453Z,56.83
2018-05-21T00:57:34.456Z,56.64
2018-05-21T00:58:34.458Z,56.35
2018-05-21T00:59:34.460Z,56.64
2018-05-21T01:00:34.462Z,56.54
2018-05-21T01:01:34.464Z,56.83
2018-05-21T01:02:34.466Z,56.74
2018-05-21T01:03:34.469Z,56.83
2018-05-21T01:04:34.471Z,57.03
2018-05-21T01:05:34.472Z,57.21
2018-05-21T01:06:34.475Z,57.48
2018-05-21T01:07:34.478Z,57.79
2018-05-21T01:08:34.479Z,57.86
2018-05-21T01:09:34.483Z,57.12
2018-05-21T01:10:34.485Z,57.12
2018-05-21T01:11:34.485Z,57.12
2018-05-21T01:12:34.490Z,56.83
2018-05-21T01:13:34.491Z,57.60
2018-05-21T01:14:34.491Z,57.67
2018-05-21T01:15:34.494Z,57.28
2018-05-21T01:16:34.495Z,57.28
2018-05-21T01:17:34.497Z,57.67
2018-05-21T01:18:34.498Z,57.19
2018-05-21T01:19:34.504Z,57.57
2018-05-21T01:20:34.505Z,57.38
2018-05-21T01:21:34.504Z,57.76
2018-05-21T01:22:34.506Z,57.28
2018-05-21T01:23:34.508Z,57.28
2018-05-21T01:24:34.510Z,57.48
2018-05-21T01:25:34.511Z,56.99
2018-05-21T01:26:34.513Z,57.28
2018-05-21T01:27:34.515Z,57.67
2018-05-21T01:28:34.518Z,57.48
2018-05-21T01:29:34.518Z,57.48
2018-05-21T01:30:34.522Z,57.95
2018-05-21T01:31:34.523Z,57.57
2018-05-21T01:32:34.525Z,58.05
2018-05-21T01:33:34.526Z,57.67
2018-05-21T01:34:34.529Z,57.57
2018-05-21T01:35:34.531Z,57.95
2018-05-21T01:36:34.533Z,58.34
2018-05-21T01:37:34.536Z,58.24
2018-05-21T01:38:34.536Z,58.72
2018-05-21T01:39:34.538Z,58.72
2018-05-21T01:40:34.540Z,58.72
2018-05-21T01:41:34.540Z,58.44
2018-05-21T01:42:34.547Z,58.81
2018-05-21T01:43:34.545Z,59.01
2018-05-21T01:44:34.548Z,58.72
2018-05-21T01:45:34.548Z,59.11
2018-05-21T01:46:34.550Z,59.45
2018-05-21T01:47:34.552Z,59.08
2018-05-21T01:48:34.554Z,58.53
2018-05-21T01:49:34.554Z,58.81
2018-05-21T01:50:34.557Z,58.91
2018-05-21T01:51:34.559Z,58.59
2018-05-21T01:52:34.560Z,58.81
2018-05-21T01:53:34.562Z,58.72
2018-05-21T01:54:34.564Z,58.88
2018-05-21T01:55:34.565Z,59.08
2018-05-21T01:56:34.568Z,59.55
2018-05-21T01:57:34.568Z,59.08
2018-05-21T01:58:34.571Z,59.65
2018-05-21T01:59:34.572Z,59.84
2018-05-21T02:00:34.575Z,59.27
2018-05-21T02:01:34.575Z,59.36
2018-05-21T02:02:34.578Z,59.75
2018-05-21T02:03:34.580Z,59.84
2018-05-21T02:04:34.595Z,59.36
2018-05-21T02:05:34.585Z,59.84
2018-05-21T02:06:34.582Z,59.45
2018-05-21T02:07:34.585Z,60.41
2018-05-21T02:08:34.613Z,59.65
2018-05-21T02:09:34.587Z,59.84
2018-05-21T02:10:34.590Z,59.84
2018-05-21T02:11:34.591Z,59.84
2018-05-21T02:12:34.593Z,59.45
2018-05-21T02:13:34.595Z,59.94
2018-05-21T02:14:34.596Z,59.55
2018-05-21T02:15:34.598Z,59.55
2018-05-21T02:16:34.599Z,59.55
2018-05-21T02:17:34.600Z,60.32
2018-05-21T02:18:34.602Z,60.51
2018-05-21T02:19:34.603Z,60.03
2018-05-21T02:20:34.610Z,60.22
2018-05-21T02:21:34.608Z,60.32
2018-05-21T02:22:34.609Z,60.51
2018-05-21T02:23:34.610Z,60.41
2018-05-21T02:24:34.612Z,60.22
2018-05-21T02:25:34.613Z,59.55
2018-05-21T02:26:34.613Z,60.03
2018-05-21T02:27:34.616Z,60.41
2018-05-21T02:28:34.617Z,60.80
2018-05-21T02:29:34.618Z,60.77
2018-05-21T02:30:34.624Z,60.96
2018-05-21T02:31:34.623Z,60.77
2018-05-21T02:32:34.622Z,61.05
2018-05-21T02:33:34.624Z,61.15
2018-05-21T02:34:34.626Z,61.44
2018-05-21T02:35:34.627Z,61.05
2018-05-21T02:36:34.634Z,61.25
2018-05-21T02:37:34.630Z,60.96
2018-05-21T02:38:34.632Z,61.25
2018-05-21T02:39:34.637Z,61.82
2018-05-21T02:40:34.635Z,61.91
2018-05-21T02:41:34.636Z,61.72
2018-05-21T02:42:34.636Z,62.01
2018-05-21T02:43:34.638Z,61.72
2018-05-21T02:44:34.640Z,61.82
2018-05-21T02:45:34.641Z,62.49
2018-05-21T02:46:34.644Z,62.20
2018-05-21T02:47:34.643Z,62.11
2018-05-21T02:48:34.646Z,62.20
2018-05-21T02:49:34.649Z,62.68
2018-05-21T02:50:34.647Z,62.68
2018-05-21T02:51:34.649Z,62.68
2018-05-21T02:52:34.650Z,62.40
2018-05-21T02:53:34.650Z,62.30
2018-05-21T02:54:34.654Z,62.68
2018-05-21T02:55:34.655Z,62.40
2018-05-21T02:56:34.655Z,62.87
2018-05-21T02:57:34.656Z,62.74
2018-05-21T02:58:34.659Z,62.59
2018-05-21T02:59:34.658Z,62.59
2018-05-21T03:00:34.660Z,62.40
2018-05-21T03:01:34.661Z,62.59
2018-05-21T03:02:34.662Z,62.87
2018-05-21T03:03:34.663Z,62.59
2018-05-21T03:04:34.664Z,62.68
2018-05-21T03:05:34.669Z,62.40
2018-05-21T03:06:34.666Z,62.49
2018-05-21T03:07:34.695Z,62.87
2018-05-21T03:08:34.669Z,62.55
2018-05-21T03:09:34.672Z,62.87
2018-05-21T03:10:34.670Z,62.59
2018-05-21T03:11:34.672Z,62.49
2018-05-21T03:12:34.673Z,62.40
2018-05-21T03:13:34.673Z,62.30
2018-05-21T03:14:34.678Z,62.49
2018-05-21T03:15:34.675Z,62.40
2018-05-21T03:16:34.678Z,62.30
2018-05-21T03:17:34.677Z,62.49
2018-05-21T03:18:34.680Z,62.40
2018-05-21T03:19:34.681Z,62.49
2018-05-21T03:20:34.682Z,62.94
2018-05-21T03:21:34.682Z,62.84
2018-05-21T03:22:34.683Z,62.94
2018-05-21T03:23:34.685Z,63.60
2018-05-21T03:24:34.686Z,63.42
2018-05-21T03:25:34.686Z,63.13
2018-05-21T03:26:34.687Z,63.32
2018-05-21T03:27:34.689Z,63.03
2018-05-21T03:28:34.688Z,63.45
2018-05-21T03:29:34.690Z,63.23
2018-05-21T03:30:34.691Z,63.60
2018-05-21T03:31:34.693Z,63.42
2018-05-21T03:32:34.694Z,63.60
2018-05-21T03:33:34.695Z,63.51
2018-05-21T03:34:34.696Z,63.99
2018-05-21T03:35:34.697Z,63.93
2018-05-21T03:36:34.699Z,63.80
2018-05-21T03:37:34.697Z,64.28
2018-05-21T03:38:34.700Z,64.56
2018-05-21T03:39:34.701Z,64.18
2018-05-21T03:40:34.702Z,64.28
2018-05-21T03:41:34.702Z,64.37
2018-05-21T03:42:34.704Z,64.95
2018-05-21T03:43:34.705Z,64.75
2018-05-21T03:44:34.706Z,64.66
2018-05-21T03:45:34.706Z,64.56
2018-05-21T03:46:34.707Z,64.47
2018-05-21T03:47:34.708Z,64.40
2018-05-21T03:48:34.710Z,64.22
2018-05-21T03:49:34.710Z,64.09
2018-05-21T03:50:34.711Z,63.89
2018-05-21T03:51:34.712Z,64.37
2018-05-21T03:52:34.714Z,64.50
2018-05-21T03:53:34.713Z,64.79
2018-05-21T03:54:34.715Z,64.98
2018-05-21T03:55:34.716Z,65.26
2018-05-21T03:56:34.717Z,65.14
2018-05-21T03:57:34.722Z,65.52
2018-05-21T03:58:34.719Z,65.81
2018-05-21T03:59:34.719Z,64.98
2018-05-21T04:00:34.721Z,65.36
2018-05-21T04:01:34.721Z,65.17
2018-05-21T04:02:34.722Z,64.98
2018-05-21T04:03:34.723Z,65.65
2018-05-21T04:04:34.757Z,65.33
2018-05-21T04:05:34.725Z,65.52
2018-05-21T04:06:34.728Z,65.52
2018-05-21T04:07:34.729Z,65.90
2018-05-21T04:08:34.728Z,65.61
2018-05-21T04:09:34.730Z,66.09
2018-05-21T04:10:34.730Z,66.19
2018-05-21T04:11:34.732Z,65.36
2018-05-21T04:12:34.733Z,66.22
2018-05-21T04:13:34.733Z,66.28
2018-05-21T04:14:34.736Z,66.38
2018-05-21T04:15:34.735Z,66.22
2018-05-21T04:16:34.744Z,66.09
2018-05-21T04:17:34.740Z,66.57
2018-05-21T04:18:34.738Z,66.51
2018-05-21T04:19:34.739Z,66.47
2018-05-21T04:20:34.741Z,66.67
2018-05-21T04:21:34.741Z,66.96
2018-05-21T04:22:34.744Z,67.34
2018-05-21T04:23:34.743Z,66.86
2018-05-21T04:24:34.745Z,67.47
2018-05-21T04:25:34.832Z,66.96
2018-05-21T04:26:34.746Z,67.34
2018-05-21T04:27:34.748Z,67.14
2018-05-21T04:28:34.749Z,67.27
2018-05-21T04:29:34.749Z,67.08
2018-05-21T04:30:34.751Z,67.34
2018-05-21T04:31:34.752Z,67.53
2018-05-21T04:32:34.753Z,67.72
2018-05-21T04:33:34.754Z,68.01
2018-05-21T04:34:34.758Z,68.13
2018-05-21T04:35:34.758Z,68.23
2018-05-21T04:36:34.845Z,67.94
2018-05-21T04:37:34.758Z,68.01
2018-05-21T04:38:34.760Z,68.33
2018-05-21T04:39:34.760Z,67.85
2018-05-21T04:40:34.762Z,67.76
2018-05-21T04:41:34.762Z,68.33
2018-05-21T04:42:34.764Z,67.85
2018-05-21T04:43:34.767Z,67.66
2018-05-21T04:44:34.769Z,68.23
2018-05-21T04:45:34.770Z,68.04
2018-05-21T04:46:34.769Z,68.33
2018-05-21T04:47:34.773Z,68.13
2018-05-21T04:48:34.773Z,67.94
2018-05-21T04:49:34.775Z,68.42
2018-05-21T04:50:34.772Z,68.13
2018-05-21T04:51:34.776Z,68.33
2018-05-21T04:52:34.776Z,68.42
2018-05-21T04:53:34.777Z,68.13
2018-05-21T04:54:34.778Z,68.52
2018-05-21T04:55:34.780Z,68.80
2018-05-21T04:56:34.781Z,69.00
2018-05-21T04:57:34.781Z,68.23
2018-05-21T04:58:34.784Z,68.90
2018-05-21T04:59:34.784Z,68.71
2018-05-21T05:00:34.786Z,68.33
2018-05-21T05:01:34.787Z,69.00
2018-05-21T05:02:34.788Z,69.00
2018-05-21T05:03:34.789Z,68.80
2018-05-21T05:04:34.791Z,68.42
2018-05-21T05:05:34.791Z,68.42
2018-05-21T05:06:34.795Z,68.36
2018-05-21T05:07:34.795Z,68.65
2018-05-21T05:08:34.797Z,68.84
2018-05-21T05:09:34.796Z,68.46
2018-05-21T05:10:34.801Z,68.46
2018-05-21T05:11:34.799Z,67.98
2018-05-21T05:12:34.803Z,67.63
2018-05-21T05:13:34.805Z,66.42
2018-05-21T05:14:34.804Z,65.75
2018-05-21T05:15:34.806Z,65.75
2018-05-21T05:16:34.808Z,65.36
2018-05-21T05:17:34.808Z,65.46
2018-05-21T05:18:34.810Z,65.46
2018-05-21T05:19:34.813Z,65.46
2018-05-21T05:20:34.814Z,65.75
2018-05-21T05:21:34.815Z,65.75
2018-05-21T05:22:34.819Z,65.65
2018-05-21T05:23:34.820Z,65.84
2018-05-21T05:24:34.822Z,65.84
2018-05-21T05:25:34.822Z,66.13
2018-05-21T05:26:34.889Z,66.89
2018-05-21T05:27:34.827Z,66.32
2018-05-21T05:28:34.829Z,66.32
2018-05-21T05:29:34.830Z,66.67
2018-05-21T05:30:34.834Z,66.67
2018-05-21T05:31:34.834Z,66.67
2018-05-21T05:32:34.838Z,66.67
2018-05-21T05:33:34.838Z,66.96
2018-05-21T05:34:34.840Z,67.18
2018-05-21T05:35:34.841Z,67.09
2018-05-21T05:36:34.845Z,66.96
2018-05-21T05:37:34.846Z,67.05
2018-05-21T05:38:34.849Z,67.57
2018-05-21T05:39:34.850Z,67.09
2018-05-21T05:40:34.855Z,66.71
2018-05-21T05:41:34.856Z,66.99
2018-05-21T05:42:34.861Z,67.76
2018-05-21T05:43:34.859Z,67.28
2018-05-21T05:44:34.863Z,67.18
2018-05-21T05:45:34.862Z,67.66
2018-05-21T05:46:34.865Z,67.47
2018-05-21T05:47:34.866Z,68.05
2018-05-21T05:48:34.870Z,68.05
2018-05-21T05:49:34.872Z,67.95
2018-05-21T05:50:34.874Z,68.14
2018-05-21T05:51:34.876Z,68.62
2018-05-21T05:52:34.879Z,68.43
2018-05-21T05:53:34.880Z,68.33
2018-05-21T05:54:34.883Z,69.01
2018-05-21T05:55:34.887Z,68.62
2018-05-21T05:56:34.887Z,69.01
2018-05-21T05:57:34.890Z,68.43
2018-05-21T05:58:34.892Z,68.52
2018-05-21T05:59:34.895Z,68.43
2018-05-21T06:00:34.897Z,68.66
2018-05-21T06:01:34.900Z,69.04
2018-05-21T06:02:34.905Z,68.95
2018-05-21T06:03:34.907Z,69.13
2018-05-21T06:04:34.907Z,69.04
2018-05-21T06:05:34.909Z,68.56
2018-05-21T06:06:34.912Z,68.85
2018-05-21T06:07:34.985Z,68.66
2018-05-21T06:08:34.918Z,68.66
2018-05-21T06:09:34.919Z,68.75
2018-05-21T06:10:34.921Z,69.62
2018-05-21T06:11:34.926Z,69.13
2018-05-21T06:12:34.931Z,68.95
2018-05-21T06:13:34.956Z,68.95
2018-05-21T06:14:34.932Z,68.56
2018-05-21T06:15:34.936Z,68.75
2018-05-21T06:16:34.937Z,69.13
2018-05-21T06:17:34.939Z,69.52
2018-05-21T06:18:34.943Z,68.75
2018-05-21T06:19:34.950Z,69.13
2018-05-21T06:20:34.948Z,69.26
2018-05-21T06:21:34.951Z,69.17
2018-05-21T06:22:34.953Z,68.59
2018-05-21T06:23:34.957Z,68.59
2018-05-21T06:24:34.959Z,68.79
2018-05-21T06:25:34.962Z,68.88
2018-05-21T06:26:34.964Z,69.07
2018-05-21T06:27:34.967Z,68.98
2018-05-21T06:28:34.972Z,68.88
2018-05-21T06:29:34.973Z,68.69
2018-05-21T06:30:34.976Z,68.88
2018-05-21T06:31:34.980Z,69.46
2018-05-21T06:32:34.983Z,68.69
2018-05-21T06:33:34.987Z,69.56
2018-05-21T06:34:35.021Z,69.49
2018-05-21T06:35:34.992Z,68.73
2018-05-21T06:36:34.994Z,68.73
2018-05-21T06:37:34.998Z,68.73
2018-05-21T06:38:35.000Z,69.01
2018-05-21T06:39:35.005Z,68.63
2018-05-21T06:40:35.007Z,69.30
2018-05-21T06:41:35.011Z,68.82
2018-05-21T06:42:35.013Z,68.53
2018-05-21T06:43:35.017Z,68.73
2018-05-21T06:44:35.021Z,69.05
2018-05-21T06:45:35.022Z,68.95
2018-05-21T06:46:35.026Z,68.28
2018-05-21T06:47:35.030Z,68.37
2018-05-21T06:48:35.033Z,68.85
2018-05-21T06:49:35.035Z,68.47
2018-05-21T06:50:35.039Z,68.28
2018-05-21T06:51:35.043Z,68.76
2018-05-21T06:52:35.046Z,68.37
2018-05-21T06:53:35.049Z,68.47
2018-05-21T06:54:35.059Z,68.47
2018-05-21T06:55:35.057Z,68.95
2018-05-21T06:56:35.067Z,68.18
2018-05-21T06:57:35.063Z,68.66
2018-05-21T06:58:35.068Z,67.61
2018-05-21T06:59:35.072Z,68.57
2018-05-21T07:00:35.075Z,68.60
2018-05-21T07:01:35.077Z,68.02
2018-05-21T07:02:35.081Z,68.12
2018-05-21T07:03:35.087Z,68.21
2018-05-21T07:04:35.129Z,68.51
2018-05-21T07:05:35.091Z,68.31
2018-05-21T07:06:35.096Z,68.02
2018-05-21T07:07:35.099Z,68.02
2018-05-21T07:08:35.103Z,67.74
2018-05-21T07:09:35.106Z,67.77
2018-05-21T07:10:35.110Z,67.19
2018-05-21T07:11:35.114Z,67.10
2018-05-21T07:12:35.119Z,67.07
2018-05-21T07:13:35.120Z,67.25
2018-05-21T07:14:35.126Z,67.93
2018-05-21T07:15:35.130Z,67.19
2018-05-21T07:16:35.134Z,67.77
2018-05-21T07:17:35.136Z,67.10
2018-05-21T07:18:35.140Z,67.10
2018-05-21T07:19:35.144Z,66.91
2018-05-21T07:20:35.149Z,67.19
2018-05-21T07:21:35.152Z,66.61
2018-05-21T07:22:35.157Z,67.10
2018-05-21T07:23:35.161Z,67.10
2018-05-21T07:24:35.165Z,67.10
2018-05-21T07:25:35.168Z,66.42
2018-05-21T07:26:35.231Z,66.55
2018-05-21T07:27:35.177Z,66.17
2018-05-21T07:28:35.183Z,65.97
2018-05-21T07:29:35.187Z,65.78
2018-05-21T07:30:35.192Z,65.97
2018-05-21T07:31:35.246Z,65.88
2018-05-21T07:32:35.197Z,66.17
2018-05-21T07:33:35.201Z,66.10
2018-05-21T07:34:35.206Z,65.91
2018-05-21T07:35:35.211Z,66.01
2018-05-21T07:36:35.217Z,64.66
2018-05-21T07:37:35.221Z,64.18
2018-05-21T07:38:35.225Z,63.25
2018-05-21T07:39:35.230Z,62.22
2018-05-21T07:40:35.235Z,61.58
2018-05-21T07:41:35.239Z,59.42
2018-05-21T07:42:35.247Z,57.32
2018-05-21T07:43:35.254Z,55.83
2018-05-21T07:44:35.262Z,52.89
2018-05-21T07:45:35.269Z,52.34
2018-05-21T07:46:35.277Z,51.42
2018-05-21T07:47:35.286Z,49.70
2018-05-21T07:48:35.295Z,48.59
2018-05-21T07:49:35.305Z,48.37
2018-05-21T07:50:35.314Z,47.40
2018-05-21T07:51:35.405Z,47.23
2018-05-21T07:52:35.337Z,46.36
2018-05-21T07:53:35.346Z,46.72
2018-05-21T07:54:35.359Z,47.50
2018-05-21T07:55:35.372Z,47.20
2018-05-21T07:56:35.384Z,48.47
2018-05-21T07:57:35.396Z,48.74
2018-05-21T07:58:35.408Z,49.05
2018-05-21T07:59:35.421Z,47.72
2018-05-21T08:00:35.433Z,46.60
2018-05-21T08:01:35.449Z,45.34
2018-05-21T08:02:35.459Z,45.48
2018-05-21T08:03:35.477Z,46.36
2018-05-21T08:04:35.487Z,45.95
2018-05-21T08:05:35.500Z,45.97
2018-05-21T08:06:35.513Z,46.45
2018-05-21T08:07:35.527Z,45.70
2018-05-21T08:08:35.543Z,46.58
2018-05-21T08:09:35.556Z,48.64
2018-05-21T08:10:35.569Z,47.91
2018-05-21T08:11:35.585Z,46.19
2018-05-21T08:12:35.598Z,46.48
2018-05-21T08:13:35.612Z,47.20
2018-05-21T08:14:35.702Z,46.92
2018-05-21T08:15:35.641Z,47.03
2018-05-21T08:16:35.656Z,46.98
2018-05-21T08:17:35.671Z,45.07
2018-05-21T08:18:35.685Z,43.92
2018-05-21T08:19:35.699Z,43.88
2018-05-21T08:20:35.715Z,44.19
2018-05-21T08:21:35.729Z,43.51
2018-05-21T08:22:35.747Z,43.61
2018-05-21T08:23:35.759Z,44.09
2018-05-21T08:24:35.775Z,43.90
2018-05-21T08:25:35.789Z,44.85
2018-05-21T08:26:35.804Z,44.38
2018-05-21T08:27:35.820Z,44.12
2018-05-21T08:28:35.835Z,43.46
2018-05-21T08:29:35.852Z,44.00
2018-05-21T08:30:35.864Z,43.61
2018-05-21T08:31:35.881Z,44.19
2018-05-21T08:32:35.896Z,44.83
2018-05-21T08:33:35.910Z,45.53
2018-05-21T08:34:35.927Z,45.43
2018-05-21T08:35:35.943Z,46.45
2018-05-21T08:36:35.959Z,45.82
2018-05-21T08:37:35.973Z,45.55
2018-05-21T08:38:35.989Z,43.75
2018-05-21T08:39:36.005Z,43.58
2018-05-21T08:40:36.021Z,43.54
2018-05-21T08:41:36.042Z,43.63
2018-05-21T08:42:36.110Z,44.02
2018-05-21T08:43:36.066Z,43.75
2018-05-21T08:44:36.084Z,43.38
2018-05-21T08:45:36.097Z,44.12
2018-05-21T08:46:36.113Z,43.92
2018-05-21T08:47:36.133Z,44.02
2018-05-21T08:48:36.260Z,43.48
2018-05-21T08:49:36.161Z,42.55
2018-05-21T08:50:36.177Z,41.32
2018-05-21T08:51:36.194Z,40.91
2018-05-21T08:52:36.210Z,40.89
2018-05-21T08:53:36.225Z,41.85
2018-05-21T08:54:36.240Z,41.99
2018-05-21T08:55:36.257Z,41.26
2018-05-21T08:56:36.308Z,41.67
2018-05-21T08:57:36.289Z,42.24
2018-05-21T08:58:36.305Z,43.38
2018-05-21T08:59:36.322Z,42.91
2018-05-21T09:00:36.339Z,42.66
2018-05-21T09:01:36.354Z,41.67
2018-05-21T09:02:36.375Z,41.79
2018-05-21T09:03:36.386Z,40.56
2018-05-21T09:04:36.412Z,39.61
2018-05-21T09:05:36.419Z,39.70
2018-05-21T09:06:36.436Z,39.94
2018-05-21T09:07:36.453Z,41.14
2018-05-21T09:08:36.469Z,42.04
2018-05-21T09:09:36.485Z,42.31
2018-05-21T09:10:36.502Z,42.45
2018-05-21T09:11:36.519Z,41.13
2018-05-21T09:12:36.535Z,40.62
2018-05-21T09:13:36.551Z,42.58
2018-05-21T09:14:36.568Z,42.53
2018-05-21T09:15:36.585Z,41.48
2018-05-21T09:16:36.637Z,40.97
2018-05-21T09:17:36.618Z,41.94
2018-05-21T09:18:36.634Z,41.38
2018-05-21T09:19:36.651Z,42.04
2018-05-21T09:20:36.667Z,42.53
2018-05-21T09:21:36.684Z,41.11
2018-05-21T09:22:36.703Z,40.16
2018-05-21T09:23:36.718Z,42.06
2018-05-21T09:24:36.733Z,43.60
2018-05-21T09:25:36.751Z,42.84
2018-05-21T09:26:36.766Z,41.69
2018-05-21T09:27:36.783Z,41.11
2018-05-21T09:28:36.799Z,40.91
2018-05-21T09:29:36.815Z,40.42
2018-05-21T09:30:36.831Z,40.70
2018-05-21T09:31:36.848Z,40.60
2018-05-21T09:32:36.865Z,42.02
2018-05-21T09:33:36.880Z,42.04
2018-05-21T09:34:36.896Z,41.16
2018-05-21T09:35:36.916Z,41.93
2018-05-21T09:36:36.929Z,42.24
2018-05-21T09:37:36.945Z,40.97
2018-05-21T09:38:36.961Z,40.68
2018-05-21T09:39:36.977Z,40.21
2018-05-21T09:40:36.994Z,40.21
2018-05-21T09:41:37.009Z,40.85
2018-05-21T09:42:37.025Z,42.00
2018-05-21T09:43:37.042Z,41.03
2018-05-21T09:44:37.059Z,40.78
2018-05-21T09:45:37.073Z,39.80
2018-05-21T09:46:37.090Z,39.69
2018-05-21T09:47:37.106Z,40.19
2018-05-21T09:48:37.126Z,39.36
2018-05-21T09:49:37.140Z,38.85
2018-05-21T09:50:37.153Z,39.67
2018-05-21T09:51:37.169Z,41.10
2018-05-21T09:52:37.185Z,40.47
2018-05-21T09:53:37.201Z,39.75
2018-05-21T09:54:37.216Z,37.43
2018-05-21T09:55:37.232Z,37.77
2018-05-21T09:56:37.249Z,38.67
2018-05-21T09:57:37.263Z,39.78
2018-05-21T09:58:37.278Z,40.42
2018-05-21T09:59:37.300Z,39.31
2018-05-21T10:00:37.311Z,38.79
2018-05-21T10:01:37.326Z,38.40
2018-05-21T10:02:37.346Z,37.15
2018-05-21T10:03:37.359Z,36.37
2018-05-21T10:04:37.380Z,36.55
2018-05-21T10:05:37.387Z,36.19
2018-05-21T10:06:37.405Z,36.94
2018-05-21T10:07:37.425Z,37.21
2018-05-21T10:08:37.437Z,37.23
2018-05-21T10:09:37.453Z,36.10
2018-05-21T10:10:37.466Z,37.00
2018-05-21T10:11:37.484Z,38.46
2018-05-21T10:12:37.499Z,37.70
2018-05-21T10:13:37.514Z,37.56
2018-05-21T10:14:37.529Z,39.12
2018-05-21T10:15:37.545Z,38.44
2018-05-21T10:16:37.560Z,39.51
2018-05-21T10:17:37.575Z,38.85
2018-05-21T10:18:37.590Z,37.71
2018-05-21T10:19:37.606Z,36.74
2018-05-21T10:20:37.622Z,35.77
2018-05-21T10:21:37.636Z,36.35
2018-05-21T10:22:37.652Z,37.81
2018-05-21T10:23:37.668Z,36.94
2018-05-21T10:24:37.683Z,38.21
2018-05-21T10:25:37.698Z,37.06
2018-05-21T10:26:37.713Z,36.30
2018-05-21T10:27:37.728Z,35.25
2018-05-21T10:28:37.744Z,35.88
2018-05-21T10:29:37.757Z,36.94
2018-05-21T10:30:37.774Z,38.17
2018-05-21T10:31:37.788Z,38.64
2018-05-21T10:32:37.803Z,39.69
2018-05-21T10:33:37.818Z,38.44
2018-05-21T10:34:37.833Z,38.44
2018-05-21T10:35:37.846Z,37.49
2018-05-21T10:36:37.862Z,36.44
2018-05-21T10:37:37.879Z,37.12
2018-05-21T10:38:37.892Z,36.71
2018-05-21T10:39:37.906Z,35.66
2018-05-21T10:40:37.919Z,36.05
2018-05-21T10:41:37.933Z,35.60
2018-05-21T10:42:37.947Z,35.70
2018-05-21T10:43:37.961Z,35.42
2018-05-21T10:44:37.975Z,34.95
2018-05-21T10:45:37.988Z,34.45
2018-05-21T10:46:38.004Z,34.56
2018-05-21T10:47:38.017Z,33.58
2018-05-21T10:48:38.031Z,34.92
2018-05-21T10:49:38.045Z,35.86
2018-05-21T10:50:38.058Z,36.85
2018-05-21T10:51:38.072Z,36.55
2018-05-21T10:52:38.086Z,37.30
2018-05-21T10:53:38.099Z,37.52
2018-05-21T10:54:38.113Z,37.45
2018-05-21T10:55:38.127Z,36.47
2018-05-21T10:56:38.145Z,35.80
2018-05-21T10:57:38.220Z,35.71
2018-05-21T10:58:38.170Z,35.31
2018-05-21T10:59:38.181Z,35.61
2018-05-21T11:00:38.196Z,35.25
2018-05-21T11:01:38.208Z,35.60
2018-05-21T11:02:38.222Z,35.68
2018-05-21T11:03:38.233Z,36.73
2018-05-21T11:04:38.285Z,36.07
2018-05-21T11:05:38.259Z,35.88
2018-05-21T11:06:38.274Z,35.02
2018-05-21T11:07:38.287Z,35.19
2018-05-21T11:08:38.306Z,34.98
2018-05-21T11:09:38.313Z,35.17
2018-05-21T11:10:38.326Z,35.49
2018-05-21T11:11:38.339Z,35.49
2018-05-21T11:12:38.353Z,34.42
2018-05-21T11:13:38.364Z,33.64
2018-05-21T11:14:38.377Z,34.11
2018-05-21T11:15:38.390Z,35.16
2018-05-21T11:16:38.403Z,35.76
2018-05-21T11:17:38.414Z,36.30
2018-05-21T11:18:38.426Z,37.28
2018-05-21T11:19:38.439Z,37.74
2018-05-21T11:20:38.450Z,37.32
2018-05-21T11:21:38.462Z,38.48
2018-05-21T11:22:38.476Z,38.27
2018-05-21T11:23:38.487Z,38.85
2018-05-21T11:24:38.565Z,38.56
2018-05-21T11:25:38.513Z,38.45
2018-05-21T11:26:38.521Z,38.73
2018-05-21T11:27:38.532Z,39.14
2018-05-21T11:28:38.543Z,39.62
2018-05-21T11:29:38.553Z,39.92
2018-05-21T11:30:38.564Z,39.53
2018-05-21T11:31:38.575Z,39.14
2018-05-21T11:32:38.586Z,38.85
2018-05-21T11:33:38.594Z,39.53
2018-05-21T11:34:38.605Z,39.84
2018-05-21T11:35:38.617Z,40.11
2018-05-21T11:36:38.627Z,40.52
2018-05-21T11:37:38.637Z,39.90
2018-05-21T11:38:38.646Z,40.50
2018-05-21T11:39:38.657Z,38.95
2018-05-21T11:40:38.667Z,39.24
2018-05-21T11:41:38.677Z,39.24
2018-05-21T11:42:38.686Z,39.43
2018-05-21T11:43:38.696Z,38.66
2018-05-21T11:44:38.705Z,38.27
2018-05-21T11:45:38.715Z,38.85
2018-05-21T11:46:38.724Z,39.62
2018-05-21T11:47:38.733Z,39.24
2018-05-21T11:48:38.745Z,38.37
2018-05-21T11:49:38.752Z,38.07
2018-05-21T11:50:38.826Z,38.27
2018-05-21T11:51:38.775Z,38.66
2018-05-21T11:52:38.788Z,38.76
2018-05-21T11:53:38.790Z,38.85
2018-05-21T11:54:38.799Z,38.76
2018-05-21T11:55:38.809Z,40.01
2018-05-21T11:56:38.818Z,40.79
2018-05-21T11:57:38.827Z,39.62
2018-05-21T11:58:38.838Z,38.56
2018-05-21T11:59:38.847Z,38.27
2018-05-21T12:00:38.855Z,38.85
2018-05-21T12:01:38.864Z,39.24
2018-05-21T12:02:38.965Z,39.53
2018-05-21T12:03:38.881Z,40.31
2018-05-21T12:04:38.891Z,39.92
2018-05-21T12:05:38.898Z,39.62
2018-05-21T12:06:38.908Z,39.04
2018-05-21T12:07:39.005Z,38.35
2018-05-21T12:08:38.925Z,38.54
2018-05-21T12:09:38.933Z,38.95
2018-05-21T12:10:38.943Z,38.76
2018-05-21T12:11:38.951Z,38.66
2018-05-21T12:12:38.961Z,38.68
2018-05-21T12:13:39.039Z,39.55
2018-05-21T12:14:38.978Z,38.46
2018-05-21T12:15:38.988Z,38.46
2018-05-21T12:16:38.995Z,38.46
2018-05-21T12:17:39.003Z,38.85
2018-05-21T12:18:39.014Z,38.66
2018-05-21T12:19:39.022Z,39.24
2018-05-21T12:20:39.031Z,38.78
2018-05-21T12:21:39.041Z,38.39
2018-05-21T12:22:39.052Z,38.76
2018-05-21T12:23:39.057Z,38.85
2018-05-21T12:24:39.066Z,38.78
2018-05-21T12:25:39.075Z,38.76
2018-05-21T12:26:39.083Z,38.76
2018-05-21T12:27:39.092Z,37.49
2018-05-21T12:28:39.120Z,38.76
2018-05-21T12:29:39.108Z,38.96
2018-05-21T12:30:39.118Z,38.27
2018-05-21T12:31:39.126Z,38.76
2018-05-21T12:32:39.135Z,39.53
2018-05-21T12:33:39.145Z,40.00
2018-05-21T12:34:39.153Z,40.11
2018-05-21T12:35:39.164Z,39.82
2018-05-21T12:36:39.171Z,39.82
2018-05-21T12:37:39.182Z,39.24
2018-05-21T12:38:39.191Z,39.34
2018-05-21T12:39:39.196Z,39.34
2018-05-21T12:40:39.203Z,39.72
2018-05-21T12:41:39.212Z,39.04
2018-05-21T12:42:39.223Z,39.24
2018-05-21T12:43:39.231Z,39.62
2018-05-21T12:44:39.240Z,39.14
2018-05-21T12:45:39.248Z,39.36
2018-05-21T12:46:39.258Z,39.34
2018-05-21T12:47:39.267Z,40.23
2018-05-21T12:48:39.275Z,39.84
2018-05-21T12:49:39.337Z,39.94
2018-05-21T12:50:39.290Z,39.16
2018-05-21T12:51:39.300Z,38.17
2018-05-21T12:52:39.309Z,38.85